Time;durP1;ratioP1;P1;durP2;ratioP2;P2;SDS_P1;SDS_P2;PMS_P1;PMS_P2;Temp;Humidity;BMP_temperature;BMP_pressure;BME280_temperature;BME280_humidity;BME280_pressure;Samples;Min_cycle;Max_cycle;Signal;HPM_P1;HPM_P2
2023/11/30 00:02:19;;;;;;;40.78;22.85;;;3.70;99.90;;;;;;5042693;28;20030;-73
2023/11/30 00:04:45;;;;;;;35.30;21.77;;;3.70;99.90;;;;;;5052551;28;20021;-73
2023/11/30 00:07:12;;;;;;;38.85;22.00;;;3.70;99.90;;;;;;5044173;28;20045;-74
2023/11/30 00:09:38;;;;;;;40.38;22.85;;;3.70;99.90;;;;;;5046268;28;20499;-73
2023/11/30 00:12:05;;;;;;;59.53;29.80;;;3.70;99.90;;;;;;5044464;28;20103;-73
2023/11/30 00:14:31;;;;;;;46.88;26.63;;;3.70;99.90;;;;;;5038128;28;20025;-73
2023/11/30 00:16:56;;;;;;;40.08;23.92;;;3.70;99.90;;;;;;5051302;28;20494;-73
2023/11/30 00:19:22;;;;;;;39.40;22.10;;;3.70;99.90;;;;;;5048888;28;20024;-73
2023/11/30 00:21:48;;;;;;;36.35;21.33;;;3.70;99.90;;;;;;5050638;28;20112;-73
2023/11/30 00:24:14;;;;;;;37.97;21.63;;;3.70;99.90;;;;;;5043308;28;20021;-73
2023/11/30 00:26:40;;;;;;;36.70;20.70;;;3.70;99.90;;;;;;5043119;28;20025;-74
2023/11/30 00:29:05;;;;;;;37.38;22.15;;;3.70;99.90;;;;;;5045565;28;20021;-73
2023/11/30 00:31:31;;;;;;;37.97;21.92;;;3.70;99.90;;;;;;5046825;28;20111;-73
2023/11/30 00:33:57;;;;;;;33.35;21.10;;;3.70;99.90;;;;;;5051192;28;20091;-74
2023/11/30 00:36:23;;;;;;;37.65;20.83;;;3.70;99.90;;;;;;5045936;28;20681;-73
2023/11/30 00:38:49;;;;;;;39.97;21.50;;;3.60;99.90;;;;;;5047637;28;20040;-74
2023/11/30 00:41:15;;;;;;;38.90;22.92;;;3.60;99.90;;;;;;5046573;28;20162;-73
2023/11/30 00:43:42;;;;;;;41.58;22.73;;;3.60;99.90;;;;;;5042552;28;20480;-73
2023/11/30 00:46:14;;;;;;;40.05;22.30;;;3.60;99.90;;;;;;5045270;28;20017;-73
2023/11/30 00:48:41;;;;;;;35.42;20.90;;;3.60;99.90;;;;;;5049702;28;20045;-73
2023/11/30 00:51:10;;;;;;;37.33;22.30;;;3.60;99.90;;;;;;5041796;28;20021;-73
2023/11/30 00:53:36;;;;;;;36.13;21.60;;;3.60;99.90;;;;;;5048104;28;20032;-73
2023/11/30 00:56:03;;;;;;;40.30;21.63;;;3.60;99.90;;;;;;5049134;28;20048;-73
2023/11/30 00:58:29;;;;;;;35.90;21.45;;;3.60;99.90;;;;;;5051497;28;20494;-73
2023/11/30 01:00:56;;;;;;;33.65;18.80;;;3.50;99.90;;;;;;5052171;28;20383;-73
2023/11/30 01:03:22;;;;;;;34.80;19.75;;;3.50;99.90;;;;;;5042546;28;20528;-73
2023/11/30 01:05:48;;;;;;;35.00;20.60;;;3.40;99.90;;;;;;5045565;28;20108;-73
2023/11/30 01:08:15;;;;;;;40.17;20.83;;;3.50;99.90;;;;;;5052937;28;20202;-73
2023/11/30 01:10:44;;;;;;;36.45;20.65;;;3.50;99.90;;;;;;5051933;28;20025;-73
2023/11/30 01:13:10;;;;;;;37.63;20.20;;;3.50;99.90;;;;;;5039795;28;20022;-73
2023/11/30 01:15:36;;;;;;;38.50;22.02;;;3.50;99.90;;;;;;5051226;28;20104;-73
2023/11/30 01:18:04;;;;;;;39.78;22.15;;;3.50;99.90;;;;;;5044004;28;20155;-73
2023/11/30 01:20:33;;;;;;;39.92;20.65;;;3.50;99.90;;;;;;5045664;28;20023;-74
2023/11/30 01:22:59;;;;;;;42.45;23.75;;;3.50;99.90;;;;;;5041742;28;20171;-73
2023/11/30 01:25:25;;;;;;;43.67;23.45;;;3.50;99.90;;;;;;5046335;28;20096;-73
2023/11/30 01:27:52;;;;;;;43.53;23.55;;;3.50;99.90;;;;;;5048909;28;20029;-73
2023/11/30 01:30:18;;;;;;;41.65;23.70;;;3.40;99.90;;;;;;5049912;28;20027;-73
2023/11/30 01:32:44;;;;;;;44.42;24.33;;;3.40;99.90;;;;;;5051185;28;20021;-73
2023/11/30 01:35:10;;;;;;;50.60;25.58;;;3.40;99.90;;;;;;5041518;28;20037;-73
2023/11/30 01:37:38;;;;;;;39.55;23.15;;;3.40;99.90;;;;;;5045644;28;20033;-73
2023/11/30 01:40:08;;;;;;;41.38;23.38;;;3.40;99.90;;;;;;5051316;28;20398;-74
2023/11/30 01:42:34;;;;;;;38.38;21.67;;;3.40;99.90;;;;;;5049999;28;20076;-73
2023/11/30 01:45:00;;;;;;;37.25;23.08;;;3.40;99.90;;;;;;5044726;28;20025;-73
2023/11/30 01:47:26;;;;;;;34.13;22.35;;;3.40;99.90;;;;;;5041418;28;20441;-73
2023/11/30 01:49:52;;;;;;;33.80;21.98;;;3.40;99.90;;;;;;5043962;28;20025;-74
2023/11/30 01:52:18;;;;;;;41.95;23.98;;;3.40;99.90;;;;;;5043490;28;20021;-73
2023/11/30 01:54:45;;;;;;;48.53;26.15;;;3.40;99.90;;;;;;5040637;28;20028;-74
2023/11/30 01:57:11;;;;;;;41.72;26.05;;;3.40;99.90;;;;;;5051990;28;20033;-74
2023/11/30 01:59:37;;;;;;;46.20;27.05;;;3.40;99.90;;;;;;5043488;28;20065;-73
2023/11/30 02:02:03;;;;;;;50.13;27.30;;;3.40;99.90;;;;;;5044311;28;20575;-73
2023/11/30 02:04:32;;;;;;;45.60;26.65;;;3.40;99.90;;;;;;5047652;28;20027;-73
2023/11/30 02:06:58;;;;;;;50.88;26.58;;;3.50;99.90;;;;;;5057519;28;20025;-74
2023/11/30 02:09:24;;;;;;;49.30;27.45;;;3.40;99.90;;;;;;5041586;28;20098;-73
2023/11/30 02:11:50;;;;;;;52.22;28.63;;;3.40;99.90;;;;;;5049328;28;20033;-73
2023/11/30 02:14:17;;;;;;;51.25;28.45;;;3.50;99.90;;;;;;5044254;28;20044;-73
2023/11/30 02:16:43;;;;;;;43.90;26.50;;;3.50;99.90;;;;;;5050057;28;20028;-73
2023/11/30 02:19:10;;;;;;;53.38;26.92;;;3.40;99.90;;;;;;5041257;28;20032;-74
2023/11/30 02:21:35;;;;;;;50.83;27.83;;;3.40;99.90;;;;;;5049724;28;20539;-73
2023/11/30 02:24:02;;;;;;;43.65;25.35;;;3.40;99.90;;;;;;5051990;28;20096;-73
2023/11/30 02:26:27;;;;;;;59.60;29.15;;;3.40;99.90;;;;;;5040605;28;20099;-73
2023/11/30 02:28:53;;;;;;;47.20;26.73;;;3.40;99.90;;;;;;5056717;28;20167;-73
2023/11/30 02:31:19;;;;;;;44.80;25.83;;;3.40;99.90;;;;;;5049716;28;20028;-73
2023/11/30 02:33:45;;;;;;;49.13;26.38;;;3.40;99.90;;;;;;5041713;28;20028;-73
2023/11/30 02:36:12;;;;;;;50.38;27.95;;;3.40;99.90;;;;;;5049121;28;20039;-73
2023/11/30 02:38:38;;;;;;;45.83;24.63;;;3.40;99.90;;;;;;5047042;28;20033;-73
2023/11/30 02:41:04;;;;;;;45.50;23.10;;;3.40;99.90;;;;;;5051207;28;20545;-73
2023/11/30 02:43:32;;;;;;;41.05;24.00;;;3.40;99.90;;;;;;5047236;28;20100;-73
2023/11/30 02:45:58;;;;;;;44.05;26.73;;;3.40;99.90;;;;;;5047271;28;20013;-73
2023/11/30 02:48:24;;;;;;;44.95;26.63;;;3.40;99.90;;;;;;5051219;28;20025;-73
2023/11/30 02:50:49;;;;;;;46.58;26.88;;;3.50;99.90;;;;;;5036112;28;20029;-73
2023/11/30 02:53:15;;;;;;;42.72;23.88;;;3.50;99.90;;;;;;5063258;28;20041;-74
2023/11/30 02:55:41;;;;;;;44.38;24.10;;;3.50;99.90;;;;;;5046449;28;20486;-74
2023/11/30 02:58:07;;;;;;;40.50;22.83;;;3.50;99.90;;;;;;5041676;28;20028;-73
2023/11/30 03:00:32;;;;;;;45.35;24.77;;;3.50;99.90;;;;;;5062228;28;20021;-73
2023/11/30 03:02:58;;;;;;;51.22;25.30;;;3.50;99.90;;;;;;5038101;28;20048;-74
2023/11/30 03:05:24;;;;;;;43.10;24.17;;;3.50;99.90;;;;;;5057611;28;20052;-73
2023/11/30 03:07:50;;;;;;;45.40;25.83;;;3.50;99.90;;;;;;5054869;28;20083;-73
2023/11/30 03:10:16;;;;;;;42.28;24.38;;;3.50;99.90;;;;;;5049073;28;20049;-73
2023/11/30 03:12:43;;;;;;;39.47;24.30;;;3.50;99.90;;;;;;5053540;28;20058;-73
2023/11/30 03:15:09;;;;;;;42.00;24.15;;;3.40;99.90;;;;;;5043211;28;20032;-73
2023/11/30 03:17:34;;;;;;;40.90;22.83;;;3.40;99.90;;;;;;5043126;28;20075;-73
2023/11/30 03:20:00;;;;;;;41.47;22.40;;;3.40;99.90;;;;;;5036235;28;20033;-75
2023/11/30 03:22:26;;;;;;;37.28;22.85;;;3.50;99.90;;;;;;5036865;28;20092;-74
2023/11/30 03:24:51;;;;;;;38.65;22.95;;;3.50;99.90;;;;;;5050891;28;20021;-74
2023/11/30 03:27:17;;;;;;;38.85;23.45;;;3.40;99.90;;;;;;5047224;28;20112;-73
2023/11/30 03:29:43;;;;;;;38.22;24.00;;;3.40;99.90;;;;;;5053109;28;20021;-73
2023/11/30 03:32:09;;;;;;;34.58;22.67;;;3.40;99.90;;;;;;5050341;28;20032;-73
2023/11/30 03:34:34;;;;;;;34.13;20.55;;;3.40;99.90;;;;;;5048545;28;20029;-73
2023/11/30 03:37:00;;;;;;;36.17;21.50;;;3.40;99.90;;;;;;5045746;28;20069;-73
2023/11/30 03:39:27;;;;;;;36.78;22.02;;;3.40;99.90;;;;;;5052863;28;20677;-73
2023/11/30 03:41:53;;;;;;;41.20;23.05;;;3.40;99.90;;;;;;5050549;28;20021;-73
2023/11/30 03:44:18;;;;;;;38.72;21.50;;;3.50;99.90;;;;;;5051624;28;20021;-74
2023/11/30 03:46:44;;;;;;;40.17;22.85;;;3.50;99.90;;;;;;5051397;28;20014;-73
2023/11/30 03:49:10;;;;;;;38.15;21.15;;;3.50;99.90;;;;;;5051433;28;20033;-74
2023/11/30 03:51:36;;;;;;;37.65;20.50;;;3.50;99.90;;;;;;5041339;28;20021;-73
2023/11/30 03:54:01;;;;;;;35.72;21.20;;;3.50;99.90;;;;;;5052916;28;20017;-73
2023/11/30 03:56:30;;;;;;;38.60;22.77;;;3.40;99.90;;;;;;5053883;28;20036;-73
2023/11/30 03:58:56;;;;;;;40.63;23.15;;;3.40;99.90;;;;;;5054815;28;20490;-73
2023/11/30 04:01:23;;;;;;;36.30;21.52;;;3.40;99.90;;;;;;5045962;28;20078;-74
2023/11/30 04:03:49;;;;;;;41.92;22.25;;;3.40;99.90;;;;;;5054543;28;20502;-73
2023/11/30 04:06:21;;;;;;;39.30;22.25;;;3.40;99.90;;;;;;5050669;28;20764;-73
2023/11/30 04:08:47;;;;;;;;;;;3.40;99.90;;;;;;5049009;28;20036;-73
2023/11/30 04:11:17;;;;;;;42.25;24.48;;;3.40;99.90;;;;;;5044335;28;19912;-73
2023/11/30 04:13:46;;;;;;;44.38;23.92;;;3.50;99.90;;;;;;5048565;28;20064;-74
2023/11/30 04:16:16;;;;;;;47.15;25.05;;;3.40;99.90;;;;;;5049378;28;21430;-74
2023/11/30 04:18:42;;;;;;;38.78;23.55;;;3.40;99.90;;;;;;5048794;28;20052;-74
2023/11/30 04:21:09;;;;;;;41.60;22.65;;;3.40;99.90;;;;;;5053653;28;20033;-73
2023/11/30 04:23:35;;;;;;;46.35;24.17;;;3.40;99.90;;;;;;5046595;28;20021;-74
2023/11/30 04:26:01;;;;;;;43.17;24.05;;;3.40;99.90;;;;;;5049750;28;20102;-74
2023/11/30 04:28:26;;;;;;;40.70;23.08;;;3.40;99.90;;;;;;5050793;28;20023;-73
2023/11/30 04:30:54;;;;;;;37.08;20.67;;;3.30;99.90;;;;;;5045930;28;20056;-74
2023/11/30 04:33:20;;;;;;;35.00;21.08;;;3.30;99.90;;;;;;5047513;28;20025;-75
2023/11/30 04:35:46;;;;;;;40.42;21.55;;;3.30;99.90;;;;;;5048368;28;20086;-74
2023/11/30 04:38:12;;;;;;;32.63;19.70;;;3.30;99.90;;;;;;5049289;28;20104;-74
2023/11/30 04:40:37;;;;;;;36.85;21.50;;;3.30;99.90;;;;;;5046698;28;20523;-74
2023/11/30 04:43:03;;;;;;;34.85;21.33;;;3.30;99.90;;;;;;5048772;28;20064;-74
2023/11/30 04:45:29;;;;;;;36.42;20.35;;;3.20;99.90;;;;;;5049977;28;20021;-74
2023/11/30 04:47:55;;;;;;;36.50;21.70;;;3.20;99.90;;;;;;5044218;28;20067;-74
2023/11/30 04:50:21;;;;;;;35.35;21.10;;;3.20;99.90;;;;;;5050918;28;20025;-74
2023/11/30 04:52:46;;;;;;;34.30;22.20;;;3.20;99.90;;;;;;5050628;28;20017;-74
2023/11/30 04:55:12;;;;;;;37.65;22.10;;;3.20;99.90;;;;;;5046347;28;20485;-75
2023/11/30 04:57:38;;;;;;;34.88;19.75;;;3.20;99.90;;;;;;5048958;28;20028;-74
2023/11/30 05:00:05;;;;;;;32.40;20.23;;;3.10;99.90;;;;;;5045150;28;20037;-75
2023/11/30 05:02:32;;;;;;;41.25;20.73;;;3.10;99.90;;;;;;5048299;28;20045;-74
2023/11/30 05:04:58;;;;;;;30.88;18.15;;;3.10;99.90;;;;;;5049370;28;20147;-74
2023/11/30 05:07:24;;;;;;;35.33;20.83;;;3.10;99.90;;;;;;5041684;28;20199;-74
2023/11/30 05:09:49;;;;;;;33.30;20.23;;;3.10;99.90;;;;;;5046942;28;20025;-74
2023/11/30 05:12:15;;;;;;;29.70;19.38;;;3.10;99.90;;;;;;5050125;28;20495;-75
2023/11/30 05:14:41;;;;;;;33.33;21.75;;;3.00;99.90;;;;;;5043994;28;20025;-74
2023/11/30 05:17:07;;;;;;;36.95;21.65;;;3.00;99.90;;;;;;5046068;28;20023;-74
2023/11/30 05:19:33;;;;;;;33.28;20.75;;;3.10;99.90;;;;;;5049080;28;20033;-74
2023/11/30 05:21:58;;;;;;;34.85;21.92;;;3.10;99.90;;;;;;5050930;28;20025;-75
2023/11/30 05:24:24;;;;;;;34.80;20.23;;;3.00;99.90;;;;;;5046841;28;20032;-75
2023/11/30 05:26:50;;;;;;;36.60;21.58;;;2.90;99.90;;;;;;5046106;28;20512;-75
2023/11/30 05:29:16;;;;;;;39.83;23.67;;;3.00;99.90;;;;;;5044962;28;20064;-75
2023/11/30 05:31:41;;;;;;;38.55;22.00;;;3.00;99.90;;;;;;5059862;28;20025;-75
2023/11/30 05:34:07;;;;;;;36.97;20.83;;;3.00;99.90;;;;;;5040342;28;20071;-75
2023/11/30 05:36:33;;;;;;;33.78;21.52;;;3.00;99.90;;;;;;5034450;28;20068;-75
2023/11/30 05:38:59;;;;;;;37.90;21.08;;;3.00;99.90;;;;;;5045044;28;20036;-75
2023/11/30 05:41:25;;;;;;;29.92;18.85;;;3.00;99.90;;;;;;5046970;28;20020;-75
2023/11/30 05:43:51;;;;;;;36.83;20.73;;;2.90;99.90;;;;;;5040004;28;20364;-75
2023/11/30 05:46:20;;;;;;;35.22;20.67;;;2.90;99.90;;;;;;5046512;28;20021;-75
2023/11/30 05:48:45;;;;;;;35.70;21.42;;;2.90;99.90;;;;;;5050968;28;20037;-75
2023/11/30 05:51:13;;;;;;;40.45;21.55;;;2.90;99.90;;;;;;5034355;28;20412;-75
2023/11/30 05:53:39;;;;;;;34.45;20.73;;;2.90;99.90;;;;;;5043845;28;20053;-75
2023/11/30 05:56:05;;;;;;;36.83;20.58;;;2.80;99.90;;;;;;5043805;28;20057;-75
2023/11/30 05:58:32;;;;;;;30.33;19.30;;;2.80;99.90;;;;;;5042975;28;20056;-75
2023/11/30 06:00:58;;;;;;;40.17;19.23;;;2.80;99.90;;;;;;5044588;28;20056;-75
2023/11/30 06:03:24;;;;;;;31.13;19.10;;;2.80;99.90;;;;;;5042815;28;20040;-74
2023/11/30 06:05:50;;;;;;;33.08;20.08;;;2.80;99.90;;;;;;5043729;28;20021;-76
2023/11/30 06:08:16;;;;;;;32.28;20.40;;;2.80;99.90;;;;;;5050033;28;20017;-75
2023/11/30 06:10:42;;;;;;;39.85;19.63;;;2.80;99.90;;;;;;5047047;28;20443;-75
2023/11/30 06:13:08;;;;;;;33.38;19.20;;;2.80;99.90;;;;;;5049611;28;20023;-76
2023/11/30 06:15:33;;;;;;;37.08;20.13;;;2.70;99.90;;;;;;5044468;28;21003;-75
2023/11/30 06:17:59;;;;;;;34.92;20.08;;;2.80;99.90;;;;;;5047777;28;20074;-75
2023/11/30 06:20:25;;;;;;;36.60;22.75;;;2.80;99.90;;;;;;5045700;28;20530;-75
2023/11/30 06:22:51;;;;;;;35.33;20.88;;;2.80;99.90;;;;;;5035131;28;20056;-75
2023/11/30 06:25:16;;;;;;;36.53;20.75;;;2.70;99.90;;;;;;5040040;28;20021;-75
2023/11/30 06:27:42;;;;;;;38.58;22.63;;;2.70;99.90;;;;;;5039381;28;20063;-75
2023/11/30 06:30:08;;;;;;;34.20;21.52;;;2.70;99.90;;;;;;5041676;28;20022;-75
2023/11/30 06:32:34;;;;;;;37.50;21.55;;;2.60;99.90;;;;;;5039042;28;20044;-75
2023/11/30 06:34:59;;;;;;;42.00;23.58;;;2.60;99.90;;;;;;5048512;28;20104;-75
2023/11/30 06:37:25;;;;;;;39.45;24.45;;;2.60;99.90;;;;;;5037289;28;20102;-75
2023/11/30 06:39:51;;;;;;;38.97;22.67;;;2.60;99.90;;;;;;5036824;28;20053;-75
2023/11/30 06:42:17;;;;;;;36.22;21.73;;;2.60;99.90;;;;;;5039198;28;20025;-75
2023/11/30 06:44:44;;;;;;;32.20;19.27;;;2.60;99.90;;;;;;5042772;28;20032;-75
2023/11/30 06:47:10;;;;;;;34.45;19.48;;;2.60;99.90;;;;;;5038852;28;20024;-75
2023/11/30 06:49:35;;;;;;;34.03;20.50;;;2.60;99.90;;;;;;5041248;28;20469;-75
2023/11/30 06:52:01;;;;;;;37.67;22.38;;;2.50;99.90;;;;;;5043719;28;20020;-74
2023/11/30 06:54:27;;;;;;;41.35;25.08;;;2.40;99.90;;;;;;5044696;28;20052;-75
2023/11/30 06:56:52;;;;;;;38.00;24.00;;;2.50;99.90;;;;;;5062862;28;20025;-75
2023/11/30 06:59:18;;;;;;;44.35;25.77;;;2.50;99.90;;;;;;5039003;28;20108;-75
2023/11/30 07:01:44;;;;;;;42.50;24.60;;;2.60;99.90;;;;;;5050149;28;20063;-75
2023/11/30 07:04:10;;;;;;;43.30;23.08;;;2.70;99.90;;;;;;5048269;28;20029;-75
2023/11/30 07:06:35;;;;;;;38.05;23.15;;;2.70;99.90;;;;;;5062541;28;20032;-76
2023/11/30 07:09:01;;;;;;;37.97;22.95;;;2.70;99.90;;;;;;5048561;28;20033;-76
2023/11/30 07:11:27;;;;;;;36.38;21.42;;;2.70;99.90;;;;;;5032648;28;20033;-75
2023/11/30 07:13:53;;;;;;;35.30;20.92;;;2.80;99.90;;;;;;5031626;28;20475;-76
2023/11/30 07:16:19;;;;;;;41.90;23.13;;;2.80;99.90;;;;;;5057128;28;20025;-76
2023/11/30 07:18:44;;;;;;;38.30;23.13;;;2.80;99.90;;;;;;5045916;28;20124;-76
2023/11/30 07:21:14;;;;;;;40.53;22.70;;;2.80;99.90;;;;;;5029714;28;20040;-76
2023/11/30 07:23:41;;;;;;;39.75;22.27;;;2.80;99.90;;;;;;5038274;28;20106;-76
2023/11/30 07:26:14;;;;;;;38.22;22.23;;;2.80;99.90;;;;;;5048508;28;20043;-75
2023/11/30 07:28:41;;;;;;;41.85;24.13;;;2.70;99.90;;;;;;5047283;28;20025;-76
2023/11/30 07:31:07;;;;;;;44.80;25.95;;;2.70;99.90;;;;;;5049214;28;20021;-76
2023/11/30 07:33:35;;;;;;;40.25;24.52;;;2.80;99.90;;;;;;5044715;28;20391;-76
2023/11/30 07:36:01;;;;;;;44.58;24.50;;;2.70;99.90;;;;;;5029834;28;20026;-76
2023/11/30 07:38:27;;;;;;;42.28;22.95;;;2.70;99.90;;;;;;5029002;28;20507;-76
2023/11/30 07:40:53;;;;;;;38.08;23.20;;;2.60;99.90;;;;;;5035806;28;20021;-76
2023/11/30 07:43:19;;;;;;;36.45;21.55;;;2.50;99.90;;;;;;5048255;28;20632;-76
2023/11/30 07:45:44;;;;;;;41.08;21.55;;;2.60;99.90;;;;;;5031560;28;20444;-76
2023/11/30 07:48:10;;;;;;;37.38;22.67;;;2.70;99.90;;;;;;5047538;28;20096;-76
2023/11/30 07:50:36;;;;;;;38.92;22.75;;;2.70;99.90;;;;;;5034966;28;20029;-76
2023/11/30 07:53:04;;;;;;;41.58;24.40;;;2.80;99.90;;;;;;5033527;28;20447;-76
2023/11/30 07:55:30;;;;;;;39.17;22.48;;;2.80;99.90;;;;;;5033744;28;20026;-76
2023/11/30 07:57:56;;;;;;;45.85;23.08;;;2.90;99.90;;;;;;5034025;28;20032;-76
2023/11/30 08:00:24;;;;;;;39.35;23.65;;;2.90;99.90;;;;;;5033472;28;20033;-76
2023/11/30 08:02:50;;;;;;;42.75;23.20;;;2.90;99.90;;;;;;5042720;28;20456;-76
2023/11/30 08:05:16;;;;;;;41.75;24.35;;;2.80;99.90;;;;;;5033859;28;20109;-76
2023/11/30 08:07:42;;;;;;;43.08;25.30;;;2.80;99.90;;;;;;5035071;28;20467;-76
2023/11/30 08:10:08;;;;;;;44.17;24.70;;;2.90;99.90;;;;;;5034416;28;20080;-76
2023/11/30 08:12:34;;;;;;;40.65;24.90;;;2.90;99.90;;;;;;5047263;28;20075;-75
2023/11/30 08:15:00;;;;;;;45.90;25.52;;;3.00;99.90;;;;;;5034443;28;20025;-76
2023/11/30 08:17:25;;;;;;;42.15;25.30;;;3.00;99.90;;;;;;5032335;28;20113;-76
2023/11/30 08:19:51;;;;;;;39.42;22.65;;;3.00;99.90;;;;;;5062018;28;20475;-76
2023/11/30 08:22:17;;;;;;;41.53;23.38;;;2.90;99.90;;;;;;5052678;28;20108;-76
2023/11/30 08:24:43;;;;;;;40.28;22.60;;;3.00;99.90;;;;;;5068522;28;20075;-76
2023/11/30 08:27:08;;;;;;;43.28;23.77;;;2.90;99.90;;;;;;5051903;28;20067;-76
2023/11/30 08:29:36;;;;;;;42.80;25.17;;;2.90;99.90;;;;;;5044510;28;20026;-76
2023/11/30 08:32:02;;;;;;;42.63;24.40;;;2.90;99.90;;;;;;5035344;28;20064;-75
2023/11/30 08:34:28;;;;;;;42.70;23.75;;;2.80;99.90;;;;;;5048552;28;20076;-76
2023/11/30 08:36:54;;;;;;;44.05;24.35;;;2.80;99.90;;;;;;5034379;28;20042;-76
2023/11/30 08:39:23;;;;;;;42.80;25.60;;;2.80;99.90;;;;;;5052383;28;20037;-76
2023/11/30 08:41:49;;;;;;;42.38;26.25;;;2.80;99.90;;;;;;5052396;28;20290;-76
2023/11/30 08:44:15;;;;;;;41.95;25.33;;;2.90;99.90;;;;;;5051215;28;20048;-76
2023/11/30 08:46:41;;;;;;;44.00;24.60;;;2.90;99.90;;;;;;5049751;28;20082;-76
2023/11/30 08:49:07;;;;;;;41.22;24.92;;;2.90;99.90;;;;;;5033267;28;20066;-76
2023/11/30 08:51:32;;;;;;;43.65;25.08;;;3.00;99.90;;;;;;5043132;28;20033;-76
2023/11/30 08:53:58;;;;;;;42.30;24.88;;;3.00;99.90;;;;;;5048466;28;20037;-76
2023/11/30 08:56:25;;;;;;;47.10;28.45;;;3.10;99.90;;;;;;5040814;28;20176;-76
2023/11/30 08:58:51;;;;;;;42.30;24.80;;;3.10;99.90;;;;;;5047650;28;20033;-76
2023/11/30 09:01:18;;;;;;;45.65;27.60;;;3.00;99.90;;;;;;5051570;28;20110;-76
2023/11/30 09:03:43;;;;;;;44.70;26.00;;;3.00;99.90;;;;;;5052411;28;20028;-76
2023/11/30 09:06:09;;;;;;;44.17;26.20;;;3.00;99.90;;;;;;5051686;28;20025;-76
2023/11/30 09:08:37;;;;;;;44.58;26.88;;;3.10;99.90;;;;;;5051810;28;20025;-76
2023/11/30 09:11:04;;;;;;;46.78;26.55;;;3.10;99.90;;;;;;5052993;28;20023;-76
2023/11/30 09:13:31;;;;;;;42.72;26.08;;;3.10;99.90;;;;;;5049518;28;20112;-76
2023/11/30 09:15:57;;;;;;;48.67;27.98;;;3.20;99.90;;;;;;5052753;28;20017;-76
2023/11/30 09:18:23;;;;;;;47.60;28.27;;;3.20;99.90;;;;;;5047657;28;20414;-75
2023/11/30 09:20:49;;;;;;;47.97;28.13;;;3.20;99.90;;;;;;5052090;28;20068;-75
2023/11/30 09:23:14;;;;;;;50.88;27.80;;;3.20;99.90;;;;;;5042900;28;20033;-75
2023/11/30 09:25:40;;;;;;;43.50;27.77;;;3.20;99.90;;;;;;5001982;28;21067;-75
2023/11/30 09:28:09;;;;;;;52.33;28.08;;;3.30;99.90;;;;;;5033408;28;20033;-75
2023/11/30 09:30:35;;;;;;;51.17;28.83;;;3.20;99.90;;;;;;5029099;28;20032;-74
2023/11/30 09:33:00;;;;;;;48.65;30.50;;;3.30;99.90;;;;;;5029770;28;20029;-75
2023/11/30 09:35:26;;;;;;;50.47;29.55;;;3.40;99.90;;;;;;5033495;28;20025;-75
2023/11/30 09:37:52;;;;;;;49.42;30.80;;;3.40;99.90;;;;;;5030206;28;20044;-75
2023/11/30 09:40:18;;;;;;;54.70;32.10;;;3.40;99.90;;;;;;5033754;28;20533;-76
2023/11/30 09:42:45;;;;;;;52.28;30.65;;;3.40;99.90;;;;;;5033540;28;20660;-75
2023/11/30 09:45:11;;;;;;;52.92;33.53;;;3.50;99.90;;;;;;5030542;28;20017;-74
2023/11/30 09:47:37;;;;;;;56.60;32.08;;;3.60;99.90;;;;;;5030393;28;20020;-75
2023/11/30 09:50:03;;;;;;;54.35;31.58;;;3.60;99.90;;;;;;5035264;28;20100;-75
2023/11/30 09:52:31;;;;;;;53.60;31.15;;;3.70;99.90;;;;;;5035697;28;20372;-75
2023/11/30 09:54:57;;;;;;;56.50;32.40;;;3.80;99.90;;;;;;5033040;28;20032;-74
2023/11/30 09:57:23;;;;;;;59.42;34.50;;;3.80;99.90;;;;;;5031097;28;20102;-74
2023/11/30 09:59:53;;;;;;;60.00;34.83;;;3.80;99.90;;;;;;5032139;28;20049;-75
2023/11/30 10:02:25;;;;;;;68.38;35.28;;;3.90;99.90;;;;;;5031350;28;20025;-74
2023/11/30 10:04:51;;;;;;;;;;;3.90;99.90;;;;;;5030051;28;20108;-75
2023/11/30 10:07:17;;;;;;;60.13;34.50;;;3.90;99.90;;;;;;5032144;28;20043;-75
2023/11/30 10:09:43;;;;;;;60.35;34.88;;;4.00;99.90;;;;;;5032415;28;20013;-75
2023/11/30 10:12:10;;;;;;;62.65;34.55;;;3.90;99.90;;;;;;5032278;28;20044;-74
2023/11/30 10:14:36;;;;;;;65.78;36.72;;;3.90;99.90;;;;;;5032081;28;20044;-75
2023/11/30 10:17:02;;;;;;;65.93;38.22;;;3.90;99.90;;;;;;5030146;28;20361;-75
2023/11/30 10:19:28;;;;;;;59.50;35.63;;;4.00;99.90;;;;;;5033449;28;20413;-75
2023/11/30 10:21:55;;;;;;;56.88;34.03;;;4.10;99.90;;;;;;5033394;28;20033;-74
2023/11/30 10:24:23;;;;;;;56.10;35.10;;;4.00;99.90;;;;;;5028205;28;20025;-75
2023/11/30 10:26:51;;;;;;;64.90;35.28;;;4.10;99.90;;;;;;5029778;28;20018;-75
2023/11/30 10:29:20;;;;;;;66.15;37.08;;;4.10;99.90;;;;;;5030569;28;20022;-76
2023/11/30 10:31:51;;;;;;;67.60;35.03;;;4.10;99.90;;;;;;5033217;28;20104;-75
2023/11/30 10:34:24;;;;;;;65.80;34.05;;;4.20;99.90;;;;;;5030498;28;20626;-75
2023/11/30 10:36:51;;;;;;;55.58;32.95;;;4.30;99.90;;;;;;5031593;28;20037;-75
2023/11/30 10:39:22;;;;;;;59.80;33.30;;;4.30;99.90;;;;;;5032033;28;20486;-76
2023/11/30 10:41:55;;;;;;;66.05;36.22;;;4.30;99.90;;;;;;5045353;28;20112;-75
2023/11/30 10:44:31;;;;;;;72.90;35.15;;;4.30;99.90;;;;;;5030044;28;20045;-76
2023/11/30 10:47:00;;;;;;;63.85;35.80;;;4.30;99.90;;;;;;5025981;28;20029;-75
2023/11/30 10:49:28;;;;;;;58.65;32.95;;;4.30;99.90;;;;;;5032396;28;20025;-75
2023/11/30 10:51:59;;;;;;;61.60;35.03;;;4.30;99.90;;;;;;5032570;28;20020;-75
2023/11/30 10:54:36;;;;;;;58.72;32.80;;;4.30;99.90;;;;;;5032582;28;20026;-74
2023/11/30 10:57:03;;;;;;;69.00;35.50;;;4.30;99.90;;;;;;5029149;28;20018;-75
2023/11/30 10:59:30;;;;;;;60.38;35.00;;;4.30;99.90;;;;;;5028985;28;20037;-74
2023/11/30 11:01:56;;;;;;;59.08;33.83;;;4.40;99.90;;;;;;5028424;28;20434;-75
2023/11/30 11:04:29;;;;;;;69.47;36.33;;;4.30;99.90;;;;;;5031557;28;20100;-75
2023/11/30 11:07:07;;;;;;;62.30;36.22;;;4.20;99.90;;;;;;5031011;28;20032;-74
2023/11/30 11:09:43;;;;;;;61.50;35.92;;;4.20;99.90;;;;;;5029123;28;20023;-75
2023/11/30 11:12:26;;;;;;;61.50;33.88;;;4.30;99.90;;;;;;5030519;28;20029;-75
2023/11/30 11:15:12;;;;;;;64.38;36.80;;;4.40;99.90;;;;;;5033145;28;20021;-75
2023/11/30 11:17:53;;;;;;;65.10;35.88;;;4.30;99.90;;;;;;5033686;28;20021;-75
2023/11/30 11:20:24;;;;;;;59.03;33.30;;;4.40;99.90;;;;;;5031706;28;20558;-75
2023/11/30 11:22:53;;;;;;;70.90;36.10;;;4.40;99.90;;;;;;5030357;28;20025;-75
2023/11/30 11:25:20;;;;;;;71.78;38.60;;;4.40;99.90;;;;;;5029251;28;20387;-76
2023/11/30 11:27:46;;;;;;;64.82;35.55;;;4.50;99.90;;;;;;5033202;28;20010;-74
2023/11/30 11:30:13;;;;;;;76.60;40.10;;;4.60;99.90;;;;;;5050126;28;20379;-76
2023/11/30 11:32:42;;;;;;;79.88;41.38;;;4.60;99.90;;;;;;5034849;28;20100;-76
2023/11/30 11:35:10;;;;;;;65.50;36.63;;;4.60;99.90;;;;;;5032454;28;20040;-76
2023/11/30 11:37:36;;;;;;;69.25;36.05;;;4.70;99.90;;;;;;5035386;28;20052;-76
2023/11/30 11:40:03;;;;;;;67.88;35.90;;;4.70;99.90;;;;;;5035185;28;20106;-76
2023/11/30 11:42:29;;;;;;;72.25;38.30;;;4.70;99.90;;;;;;5035079;28;20814;-76
2023/11/30 11:44:59;;;;;;;66.35;35.83;;;4.70;99.90;;;;;;5030979;28;20125;-77
2023/11/30 11:47:25;;;;;;;72.30;35.42;;;4.80;99.90;;;;;;5035147;28;20501;-76
2023/11/30 11:49:52;;;;;;;69.45;38.33;;;4.70;99.90;;;;;;5038813;28;20017;-76
2023/11/30 11:52:22;;;;;;;67.13;36.92;;;4.70;99.90;;;;;;5038926;28;20458;-77
2023/11/30 11:55:08;;;;;;;63.95;35.28;;;4.80;99.90;;;;;;5036196;28;20028;-76
2023/11/30 11:57:42;;;;;;;62.38;34.88;;;4.80;99.90;;;;;;5038487;28;20014;-77
2023/11/30 12:00:17;;;;;;;63.28;35.15;;;4.80;99.90;;;;;;5036150;28;20153;-77
2023/11/30 12:02:44;;;;;;;67.18;37.15;;;4.80;99.90;;;;;;5034588;28;20060;-77
2023/11/30 12:05:15;;;;;;;66.45;36.72;;;4.90;99.90;;;;;;5054008;28;20025;-77
2023/11/30 12:07:52;;;;;;;67.78;38.22;;;4.80;99.90;;;;;;5032478;28;20080;-76
2023/11/30 12:10:48;;;;;;;67.05;36.67;;;4.80;99.90;;;;;;5035370;28;20033;-76
2023/11/30 12:13:14;;;;;;;62.90;33.83;;;4.80;99.90;;;;;;5033065;28;20570;-77
2023/11/30 12:15:41;;;;;;;59.78;35.40;;;4.90;99.90;;;;;;5039498;28;20460;-77
2023/11/30 12:18:06;;;;;;;72.53;38.15;;;4.90;99.90;;;;;;5032287;28;20109;-77
2023/11/30 12:20:33;;;;;;;66.20;35.40;;;4.90;99.90;;;;;;5030473;28;20096;-76
2023/11/30 12:22:59;;;;;;;48.00;29.08;;;4.90;99.90;;;;;;5031180;28;20044;-77
2023/11/30 12:25:25;;;;;;;62.92;34.83;;;4.90;99.90;;;;;;5036439;28;20017;-77
2023/11/30 12:27:51;;;;;;;52.05;31.85;;;5.00;99.90;;;;;;5036798;28;20096;-77
2023/11/30 12:30:18;;;;;;;63.35;34.90;;;5.10;99.90;;;;;;5034394;28;20021;-75
2023/11/30 12:32:45;;;;;;;54.65;31.38;;;5.10;99.90;;;;;;5036348;28;20052;-77
2023/11/30 12:35:12;;;;;;;53.83;32.30;;;5.10;99.90;;;;;;5036104;28;20032;-76
2023/11/30 12:37:38;;;;;;;59.90;32.47;;;5.10;99.90;;;;;;5031169;28;20028;-77